sensor_id;sensor_type;location;lat;lon;timestamp;P1;durP1;ratioP1;P2;durP2;ratioP2
27539;SDS011;15906;52.046;4.724;2022-12-28T00:01:19;10.82;;;5.53;;
27539;SDS011;15906;52.046;4.724;2022-12-28T00:03:47;11.82;;;6.13;;
27539;SDS011;15906;52.046;4.724;2022-12-28T00:06:13;14.70;;;6.57;;
27539;SDS011;15906;52.046;4.724;2022-12-28T00:08:40;14.02;;;6.30;;
27539;SDS011;15906;52.046;4.724;2022-12-28T00:11:07;13.07;;;6.93;;
27539;SDS011;15906;52.046;4.724;2022-12-28T00:13:36;16.25;;;6.65;;
27539;SDS011;15906;52.046;4.724;2022-12-28T00:16:06;12.27;;;6.38;;
27539;SDS011;15906;52.046;4.724;2022-12-28T00:18:33;15.45;;;6.85;;
27539;SDS011;15906;52.046;4.724;2022-12-28T00:20:59;12.18;;;6.07;;
27539;SDS011;15906;52.046;4.724;2022-12-28T00:23:25;16.42;;;6.40;;
27539;SDS011;15906;52.046;4.724;2022-12-28T00:25:53;16.90;;;6.10;;
27539;SDS011;15906;52.046;4.724;2022-12-28T00:28:20;11.52;;;6.20;;
27539;SDS011;15906;52.046;4.724;2022-12-28T00:30:45;12.77;;;6.30;;
27539;SDS011;15906;52.046;4.724;2022-12-28T00:33:11;12.18;;;6.30;;
27539;SDS011;15906;52.046;4.724;2022-12-28T00:35:37;11.52;;;5.28;;
27539;SDS011;15906;52.046;4.724;2022-12-28T00:38:02;14.02;;;5.63;;
27539;SDS011;15906;52.046;4.724;2022-12-28T00:40:28;12.40;;;6.40;;
27539;SDS011;15906;52.046;4.724;2022-12-28T00:42:53;11.50;;;6.22;;
27539;SDS011;15906;52.046;4.724;2022-12-28T00:45:19;14.60;;;6.50;;
27539;SDS011;15906;52.046;4.724;2022-12-28T00:47:44;15.02;;;7.00;;
27539;SDS011;15906;52.046;4.724;2022-12-28T00:50:10;11.85;;;6.45;;
27539;SDS011;15906;52.046;4.724;2022-12-28T00:52:36;10.73;;;5.93;;
27539;SDS011;15906;52.046;4.724;2022-12-28T00:55:01;10.00;;;6.45;;
27539;SDS011;15906;52.046;4.724;2022-12-28T00:57:27;12.68;;;6.80;;
27539;SDS011;15906;52.046;4.724;2022-12-28T00:59:54;14.80;;;7.60;;
27539;SDS011;15906;52.046;4.724;2022-12-28T01:02:19;10.90;;;6.70;;
27539;SDS011;15906;52.046;4.724;2022-12-28T01:04:45;12.55;;;7.63;;
27539;SDS011;15906;52.046;4.724;2022-12-28T01:07:10;12.68;;;7.13;;
27539;SDS011;15906;52.046;4.724;2022-12-28T01:09:36;10.75;;;7.47;;
27539;SDS011;15906;52.046;4.724;2022-12-28T01:12:02;12.70;;;7.40;;
27539;SDS011;15906;52.046;4.724;2022-12-28T01:14:27;13.45;;;7.93;;
27539;SDS011;15906;52.046;4.724;2022-12-28T01:16:53;12.23;;;7.25;;
27539;SDS011;15906;52.046;4.724;2022-12-28T01:19:19;18.30;;;7.93;;
27539;SDS011;15906;52.046;4.724;2022-12-28T01:21:46;10.55;;;6.43;;
27539;SDS011;15906;52.046;4.724;2022-12-28T01:24:13;14.68;;;8.45;;
27539;SDS011;15906;52.046;4.724;2022-12-28T01:26:39;13.60;;;8.32;;
27539;SDS011;15906;52.046;4.724;2022-12-28T01:29:04;15.80;;;7.47;;
27539;SDS011;15906;52.046;4.724;2022-12-28T01:31:30;12.48;;;7.20;;
27539;SDS011;15906;52.046;4.724;2022-12-28T01:33:56;14.35;;;7.38;;
27539;SDS011;15906;52.046;4.724;2022-12-28T01:36:22;16.13;;;8.32;;
27539;SDS011;15906;52.046;4.724;2022-12-28T01:38:53;13.48;;;7.15;;
27539;SDS011;15906;52.046;4.724;2022-12-28T01:41:20;11.95;;;7.15;;
27539;SDS011;15906;52.046;4.724;2022-12-28T01:44:26;10.95;;;7.53;;
27539;SDS011;15906;52.046;4.724;2022-12-28T01:46:41;14.02;;;7.57;;
27539;SDS011;15906;52.046;4.724;2022-12-28T01:49:12;15.73;;;8.38;;
27539;SDS011;15906;52.046;4.724;2022-12-28T01:51:49;16.48;;;7.93;;
27539;SDS011;15906;52.046;4.724;2022-12-28T01:54:22;13.75;;;7.15;;
27539;SDS011;15906;52.046;4.724;2022-12-28T01:56:50;10.18;;;6.63;;
27539;SDS011;15906;52.046;4.724;2022-12-28T01:59:16;18.77;;;8.18;;
27539;SDS011;15906;52.046;4.724;2022-12-28T02:01:45;12.73;;;7.85;;
27539;SDS011;15906;52.046;4.724;2022-12-28T02:04:11;12.10;;;7.95;;
27539;SDS011;15906;52.046;4.724;2022-12-28T02:06:37;11.60;;;7.32;;
27539;SDS011;15906;52.046;4.724;2022-12-28T02:09:05;13.98;;;7.72;;
27539;SDS011;15906;52.046;4.724;2022-12-28T02:11:35;12.18;;;7.80;;
27539;SDS011;15906;52.046;4.724;2022-12-28T02:14:01;15.55;;;7.55;;
27539;SDS011;15906;52.046;4.724;2022-12-28T02:16:28;11.32;;;7.10;;
27539;SDS011;15906;52.046;4.724;2022-12-28T02:18:54;13.60;;;7.05;;
27539;SDS011;15906;52.046;4.724;2022-12-28T02:29:26;14.35;;;7.72;;
27539;SDS011;15906;52.046;4.724;2022-12-28T02:37:37;11.35;;;7.63;;
27539;SDS011;15906;52.046;4.724;2022-12-28T02:40:16;12.35;;;7.47;;
27539;SDS011;15906;52.046;4.724;2022-12-28T02:42:49;12.95;;;6.93;;
27539;SDS011;15906;52.046;4.724;2022-12-28T02:48:16;14.48;;;9.00;;
27539;SDS011;15906;52.046;4.724;2022-12-28T02:51:21;12.52;;;7.82;;
27539;SDS011;15906;52.046;4.724;2022-12-28T03:00:07;11.32;;;7.55;;
27539;SDS011;15906;52.046;4.724;2022-12-28T03:05:33;9.82;;;6.82;;
27539;SDS011;15906;52.046;4.724;2022-12-28T03:08:36;9.73;;;6.00;;
27539;SDS011;15906;52.046;4.724;2022-12-28T03:11:25;12.27;;;7.35;;
27539;SDS011;15906;52.046;4.724;2022-12-28T03:14:00;11.32;;;7.70;;
27539;SDS011;15906;52.046;4.724;2022-12-28T03:16:33;17.25;;;7.70;;
27539;SDS011;15906;52.046;4.724;2022-12-28T03:19:22;11.55;;;7.15;;
27539;SDS011;15906;52.046;4.724;2022-12-28T03:22:10;12.02;;;6.50;;
27539;SDS011;15906;52.046;4.724;2022-12-28T03:24:57;10.15;;;7.50;;
27539;SDS011;15906;52.046;4.724;2022-12-28T03:27:44;14.40;;;7.90;;
27539;SDS011;15906;52.046;4.724;2022-12-28T03:30:29;10.88;;;7.10;;
27539;SDS011;15906;52.046;4.724;2022-12-28T03:33:17;12.15;;;7.80;;
27539;SDS011;15906;52.046;4.724;2022-12-28T03:38:12;10.73;;;7.57;;
27539;SDS011;15906;52.046;4.724;2022-12-28T03:40:52;11.13;;;7.05;;
27539;SDS011;15906;52.046;4.724;2022-12-28T03:43:25;11.30;;;6.97;;
27539;SDS011;15906;52.046;4.724;2022-12-28T03:46:12;19.27;;;7.45;;
27539;SDS011;15906;52.046;4.724;2022-12-28T03:48:42;11.02;;;6.25;;
27539;SDS011;15906;52.046;4.724;2022-12-28T03:51:10;10.25;;;7.20;;
27539;SDS011;15906;52.046;4.724;2022-12-28T03:53:39;9.65;;;7.13;;
27539;SDS011;15906;52.046;4.724;2022-12-28T03:56:16;16.27;;;6.75;;
27539;SDS011;15906;52.046;4.724;2022-12-28T03:58:43;12.35;;;7.18;;
27539;SDS011;15906;52.046;4.724;2022-12-28T04:01:09;10.63;;;6.70;;
27539;SDS011;15906;52.046;4.724;2022-12-28T04:03:35;10.38;;;6.55;;
27539;SDS011;15906;52.046;4.724;2022-12-28T04:06:01;7.63;;;5.95;;
27539;SDS011;15906;52.046;4.724;2022-12-28T04:08:27;11.45;;;6.40;;
27539;SDS011;15906;52.046;4.724;2022-12-28T04:10:53;8.82;;;6.20;;
27539;SDS011;15906;52.046;4.724;2022-12-28T04:13:19;12.52;;;6.18;;
27539;SDS011;15906;52.046;4.724;2022-12-28T04:15:54;8.90;;;4.88;;
27539;SDS011;15906;52.046;4.724;2022-12-28T04:18:24;13.13;;;6.15;;
27539;SDS011;15906;52.046;4.724;2022-12-28T04:20:50;8.30;;;5.55;;
27539;SDS011;15906;52.046;4.724;2022-12-28T04:23:15;8.52;;;5.00;;
27539;SDS011;15906;52.046;4.724;2022-12-28T04:25:41;7.85;;;5.20;;
27539;SDS011;15906;52.046;4.724;2022-12-28T04:28:06;8.88;;;5.53;;
27539;SDS011;15906;52.046;4.724;2022-12-28T04:30:32;10.75;;;5.72;;
27539;SDS011;15906;52.046;4.724;2022-12-28T04:32:57;10.13;;;5.60;;
27539;SDS011;15906;52.046;4.724;2022-12-28T04:35:23;7.93;;;4.90;;
27539;SDS011;15906;52.046;4.724;2022-12-28T04:37:49;11.57;;;5.05;;
27539;SDS011;15906;52.046;4.724;2022-12-28T04:40:14;10.50;;;5.20;;
27539;SDS011;15906;52.046;4.724;2022-12-28T04:42:39;9.23;;;5.05;;
27539;SDS011;15906;52.046;4.724;2022-12-28T04:45:05;11.27;;;4.93;;
27539;SDS011;15906;52.046;4.724;2022-12-28T04:47:31;8.13;;;4.72;;
27539;SDS011;15906;52.046;4.724;2022-12-28T04:49:57;12.57;;;6.00;;
27539;SDS011;15906;52.046;4.724;2022-12-28T04:52:22;9.70;;;4.90;;
27539;SDS011;15906;52.046;4.724;2022-12-28T04:54:48;9.02;;;4.78;;
27539;SDS011;15906;52.046;4.724;2022-12-28T04:57:14;12.38;;;5.15;;
27539;SDS011;15906;52.046;4.724;2022-12-28T04:59:39;7.47;;;4.70;;
27539;SDS011;15906;52.046;4.724;2022-12-28T05:02:05;6.80;;;4.20;;
27539;SDS011;15906;52.046;4.724;2022-12-28T05:04:31;8.00;;;5.05;;
27539;SDS011;15906;52.046;4.724;2022-12-28T05:06:57;9.50;;;4.82;;
27539;SDS011;15906;52.046;4.724;2022-12-28T05:09:22;10.98;;;4.22;;
27539;SDS011;15906;52.046;4.724;2022-12-28T05:11:48;8.55;;;4.53;;
27539;SDS011;15906;52.046;4.724;2022-12-28T05:14:14;7.70;;;4.75;;
27539;SDS011;15906;52.046;4.724;2022-12-28T05:16:39;8.98;;;4.90;;
27539;SDS011;15906;52.046;4.724;2022-12-28T05:19:05;6.70;;;4.97;;
27539;SDS011;15906;52.046;4.724;2022-12-28T05:21:30;7.63;;;4.63;;
27539;SDS011;15906;52.046;4.724;2022-12-28T05:23:56;6.32;;;4.63;;
27539;SDS011;15906;52.046;4.724;2022-12-28T05:26:23;8.75;;;4.82;;
27539;SDS011;15906;52.046;4.724;2022-12-28T05:28:53;7.10;;;4.70;;
27539;SDS011;15906;52.046;4.724;2022-12-28T05:31:20;8.85;;;5.07;;
27539;SDS011;15906;52.046;4.724;2022-12-28T05:33:47;9.70;;;5.10;;
27539;SDS011;15906;52.046;4.724;2022-12-28T05:36:15;9.65;;;5.55;;
27539;SDS011;15906;52.046;4.724;2022-12-28T05:38:51;9.77;;;6.15;;
27539;SDS011;15906;52.046;4.724;2022-12-28T05:41:18;10.13;;;5.05;;
27539;SDS011;15906;52.046;4.724;2022-12-28T05:43:46;8.20;;;5.13;;
27539;SDS011;15906;52.046;4.724;2022-12-28T05:46:13;6.90;;;4.63;;
27539;SDS011;15906;52.046;4.724;2022-12-28T05:48:41;9.25;;;5.30;;
27539;SDS011;15906;52.046;4.724;2022-12-28T05:51:08;9.10;;;5.30;;
27539;SDS011;15906;52.046;4.724;2022-12-28T05:53:38;8.07;;;5.25;;
27539;SDS011;15906;52.046;4.724;2022-12-28T05:56:11;8.52;;;5.28;;
27539;SDS011;15906;52.046;4.724;2022-12-28T05:58:39;6.03;;;4.88;;
27539;SDS011;15906;52.046;4.724;2022-12-28T06:01:14;7.65;;;4.93;;
27539;SDS011;15906;52.046;4.724;2022-12-28T06:03:42;10.52;;;6.30;;
27539;SDS011;15906;52.046;4.724;2022-12-28T06:06:14;8.25;;;5.65;;
27539;SDS011;15906;52.046;4.724;2022-12-28T06:08:41;8.10;;;5.70;;
27539;SDS011;15906;52.046;4.724;2022-12-28T06:11:08;7.22;;;4.78;;
27539;SDS011;15906;52.046;4.724;2022-12-28T06:13:36;7.57;;;4.93;;
27539;SDS011;15906;52.046;4.724;2022-12-28T06:16:05;8.15;;;5.97;;
27539;SDS011;15906;52.046;4.724;2022-12-28T06:18:32;9.63;;;5.55;;
27539;SDS011;15906;52.046;4.724;2022-12-28T06:21:12;7.13;;;5.00;;
27539;SDS011;15906;52.046;4.724;2022-12-28T06:23:39;7.47;;;4.47;;
27539;SDS011;15906;52.046;4.724;2022-12-28T06:26:06;12.38;;;4.70;;
27539;SDS011;15906;52.046;4.724;2022-12-28T06:28:32;8.40;;;5.00;;
27539;SDS011;15906;52.046;4.724;2022-12-28T06:31:01;6.50;;;4.60;;
27539;SDS011;15906;52.046;4.724;2022-12-28T06:33:27;8.95;;;4.65;;
27539;SDS011;15906;52.046;4.724;2022-12-28T06:35:53;7.82;;;4.03;;
27539;SDS011;15906;52.046;4.724;2022-12-28T06:38:18;9.07;;;4.40;;
27539;SDS011;15906;52.046;4.724;2022-12-28T06:40:44;5.68;;;4.22;;
27539;SDS011;15906;52.046;4.724;2022-12-28T06:43:09;7.93;;;4.60;;
27539;SDS011;15906;52.046;4.724;2022-12-28T06:45:35;8.23;;;4.65;;
27539;SDS011;15906;52.046;4.724;2022-12-28T06:48:00;6.93;;;4.53;;
27539;SDS011;15906;52.046;4.724;2022-12-28T06:50:26;6.57;;;4.43;;
27539;SDS011;15906;52.046;4.724;2022-12-28T06:52:51;5.88;;;4.63;;
27539;SDS011;15906;52.046;4.724;2022-12-28T06:55:17;8.40;;;4.95;;
27539;SDS011;15906;52.046;4.724;2022-12-28T06:57:42;6.88;;;4.78;;
27539;SDS011;15906;52.046;4.724;2022-12-28T07:00:08;6.93;;;4.05;;
27539;SDS011;15906;52.046;4.724;2022-12-28T07:02:34;10.32;;;5.30;;
27539;SDS011;15906;52.046;4.724;2022-12-28T07:05:00;9.18;;;4.88;;
27539;SDS011;15906;52.046;4.724;2022-12-28T07:07:25;9.93;;;5.10;;
27539;SDS011;15906;52.046;4.724;2022-12-28T07:09:51;8.60;;;4.60;;
27539;SDS011;15906;52.046;4.724;2022-12-28T07:12:16;9.05;;;4.78;;
27539;SDS011;15906;52.046;4.724;2022-12-28T07:14:42;6.28;;;3.50;;
27539;SDS011;15906;52.046;4.724;2022-12-28T07:17:07;7.45;;;4.13;;
27539;SDS011;15906;52.046;4.724;2022-12-28T07:19:32;5.80;;;3.63;;
27539;SDS011;15906;52.046;4.724;2022-12-28T07:21:58;6.47;;;4.15;;
27539;SDS011;15906;52.046;4.724;2022-12-28T07:24:23;7.13;;;4.38;;
27539;SDS011;15906;52.046;4.724;2022-12-28T07:26:49;6.15;;;4.20;;
27539;SDS011;15906;52.046;4.724;2022-12-28T07:29:14;5.63;;;4.10;;
27539;SDS011;15906;52.046;4.724;2022-12-28T07:31:40;7.40;;;4.00;;
27539;SDS011;15906;52.046;4.724;2022-12-28T07:34:06;6.25;;;4.47;;
27539;SDS011;15906;52.046;4.724;2022-12-28T07:36:31;6.68;;;3.95;;
27539;SDS011;15906;52.046;4.724;2022-12-28T07:38:57;6.65;;;4.60;;
27539;SDS011;15906;52.046;4.724;2022-12-28T07:41:27;6.15;;;4.47;;
27539;SDS011;15906;52.046;4.724;2022-12-28T07:43:54;5.57;;;4.32;;
27539;SDS011;15906;52.046;4.724;2022-12-28T07:46:21;10.43;;;4.35;;
27539;SDS011;15906;52.046;4.724;2022-12-28T07:48:48;8.60;;;4.28;;
27539;SDS011;15906;52.046;4.724;2022-12-28T07:51:17;7.30;;;4.72;;
27539;SDS011;15906;52.046;4.724;2022-12-28T07:53:46;6.70;;;3.92;;
27539;SDS011;15906;52.046;4.724;2022-12-28T07:56:12;6.50;;;4.40;;
27539;SDS011;15906;52.046;4.724;2022-12-28T07:58:39;7.93;;;4.20;;
27539;SDS011;15906;52.046;4.724;2022-12-28T08:01:05;8.02;;;4.45;;
27539;SDS011;15906;52.046;4.724;2022-12-28T08:03:33;6.15;;;4.07;;
27539;SDS011;15906;52.046;4.724;2022-12-28T08:06:06;6.68;;;4.28;;
27539;SDS011;15906;52.046;4.724;2022-12-28T08:08:34;6.88;;;3.60;;
27539;SDS011;15906;52.046;4.724;2022-12-28T08:11:02;5.43;;;3.92;;
27539;SDS011;15906;52.046;4.724;2022-12-28T08:13:30;6.40;;;3.92;;
27539;SDS011;15906;52.046;4.724;2022-12-28T08:15:57;4.78;;;3.72;;
27539;SDS011;15906;52.046;4.724;2022-12-28T08:18:22;5.15;;;3.75;;
27539;SDS011;15906;52.046;4.724;2022-12-28T08:20:48;9.63;;;3.45;;
27539;SDS011;15906;52.046;4.724;2022-12-28T08:23:13;8.27;;;3.72;;
27539;SDS011;15906;52.046;4.724;2022-12-28T08:25:38;6.40;;;3.45;;
27539;SDS011;15906;52.046;4.724;2022-12-28T08:28:04;5.32;;;3.20;;
27539;SDS011;15906;52.046;4.724;2022-12-28T08:30:29;5.35;;;3.58;;
27539;SDS011;15906;52.046;4.724;2022-12-28T08:32:55;7.47;;;3.83;;
27539;SDS011;15906;52.046;4.724;2022-12-28T08:35:20;5.05;;;3.85;;
27539;SDS011;15906;52.046;4.724;2022-12-28T08:37:46;8.65;;;4.43;;
27539;SDS011;15906;52.046;4.724;2022-12-28T08:40:11;4.82;;;3.85;;
27539;SDS011;15906;52.046;4.724;2022-12-28T08:42:37;6.22;;;4.18;;
27539;SDS011;15906;52.046;4.724;2022-12-28T08:45:03;4.88;;;3.95;;
27539;SDS011;15906;52.046;4.724;2022-12-28T08:47:28;6.55;;;4.28;;
27539;SDS011;15906;52.046;4.724;2022-12-28T08:49:54;6.43;;;4.47;;
27539;SDS011;15906;52.046;4.724;2022-12-28T08:52:19;7.40;;;4.57;;
27539;SDS011;15906;52.046;4.724;2022-12-28T08:54:45;7.75;;;4.65;;
27539;SDS011;15906;52.046;4.724;2022-12-28T08:57:10;4.85;;;4.30;;
27539;SDS011;15906;52.046;4.724;2022-12-28T08:59:36;8.55;;;4.45;;
27539;SDS011;15906;52.046;4.724;2022-12-28T09:02:02;7.95;;;4.10;;
27539;SDS011;15906;52.046;4.724;2022-12-28T09:04:27;6.72;;;3.97;;
27539;SDS011;15906;52.046;4.724;2022-12-28T09:06:53;7.70;;;3.80;;
27539;SDS011;15906;52.046;4.724;2022-12-28T09:09:18;12.60;;;4.57;;
27539;SDS011;15906;52.046;4.724;2022-12-28T09:11:45;8.43;;;4.63;;
27539;SDS011;15906;52.046;4.724;2022-12-28T09:14:12;11.40;;;4.00;;
27539;SDS011;15906;52.046;4.724;2022-12-28T09:16:38;9.73;;;4.38;;
27539;SDS011;15906;52.046;4.724;2022-12-28T09:19:05;6.28;;;4.00;;
27539;SDS011;15906;52.046;4.724;2022-12-28T09:21:33;8.93;;;4.32;;
27539;SDS011;15906;52.046;4.724;2022-12-28T09:24:00;8.82;;;4.40;;
27539;SDS011;15906;52.046;4.724;2022-12-28T09:26:28;7.45;;;4.22;;
27539;SDS011;15906;52.046;4.724;2022-12-28T09:28:59;8.40;;;4.47;;
27539;SDS011;15906;52.046;4.724;2022-12-28T09:31:27;7.50;;;4.85;;
27539;SDS011;15906;52.046;4.724;2022-12-28T09:33:54;8.95;;;4.28;;
27539;SDS011;15906;52.046;4.724;2022-12-28T09:38:51;6.35;;;3.95;;
27539;SDS011;15906;52.046;4.724;2022-12-28T09:44:08;5.05;;;3.78;;
27539;SDS011;15906;52.046;4.724;2022-12-28T09:47:03;6.88;;;3.83;;
27539;SDS011;15906;52.046;4.724;2022-12-28T09:49:43;7.18;;;3.67;;
27539;SDS011;15906;52.046;4.724;2022-12-28T09:52:29;8.32;;;4.10;;
27539;SDS011;15906;52.046;4.724;2022-12-28T09:55:14;8.35;;;3.80;;
27539;SDS011;15906;52.046;4.724;2022-12-28T09:57:42;9.38;;;4.03;;
27539;SDS011;15906;52.046;4.724;2022-12-28T10:00:15;6.60;;;3.60;;
27539;SDS011;15906;52.046;4.724;2022-12-28T10:02:44;12.13;;;5.13;;
27539;SDS011;15906;52.046;4.724;2022-12-28T10:05:15;11.13;;;4.95;;
27539;SDS011;15906;52.046;4.724;2022-12-28T10:07:41;10.10;;;5.18;;
27539;SDS011;15906;52.046;4.724;2022-12-28T10:10:12;7.10;;;3.63;;
27539;SDS011;15906;52.046;4.724;2022-12-28T10:12:41;9.80;;;3.80;;
27539;SDS011;15906;52.046;4.724;2022-12-28T10:15:10;11.43;;;4.38;;
27539;SDS011;15906;52.046;4.724;2022-12-28T10:17:39;9.52;;;3.65;;
27539;SDS011;15906;52.046;4.724;2022-12-28T10:20:06;8.13;;;3.72;;
27539;SDS011;15906;52.046;4.724;2022-12-28T10:22:39;9.98;;;3.72;;
27539;SDS011;15906;52.046;4.724;2022-12-28T10:25:16;8.07;;;3.60;;
27539;SDS011;15906;52.046;4.724;2022-12-28T10:27:44;8.15;;;3.40;;
27539;SDS011;15906;52.046;4.724;2022-12-28T10:30:17;4.95;;;3.40;;
27539;SDS011;15906;52.046;4.724;2022-12-28T10:32:51;8.68;;;3.72;;
27539;SDS011;15906;52.046;4.724;2022-12-28T10:35:23;8.65;;;3.25;;
27539;SDS011;15906;52.046;4.724;2022-12-28T10:37:59;6.13;;;3.55;;
27539;SDS011;15906;52.046;4.724;2022-12-28T10:40:29;6.10;;;3.70;;
27539;SDS011;15906;52.046;4.724;2022-12-28T10:43:00;8.73;;;4.70;;
27539;SDS011;15906;52.046;4.724;2022-12-28T10:48:00;10.77;;;4.93;;
27539;SDS011;15906;52.046;4.724;2022-12-28T10:50:50;9.77;;;5.20;;
27539;SDS011;15906;52.046;4.724;2022-12-28T10:53:22;8.93;;;6.43;;
27539;SDS011;15906;52.046;4.724;2022-12-28T10:55:59;10.15;;;6.70;;
27539;SDS011;15906;52.046;4.724;2022-12-28T10:58:27;8.73;;;6.15;;
27539;SDS011;15906;52.046;4.724;2022-12-28T11:00:53;9.95;;;6.40;;
27539;SDS011;15906;52.046;4.724;2022-12-28T11:03:24;5.60;;;4.53;;
27539;SDS011;15906;52.046;4.724;2022-12-28T11:11:28;6.78;;;4.05;;
27539;SDS011;15906;52.046;4.724;2022-12-28T11:13:55;8.45;;;4.47;;
27539;SDS011;15906;52.046;4.724;2022-12-28T11:16:33;8.30;;;4.50;;
27539;SDS011;15906;52.046;4.724;2022-12-28T11:19:01;5.80;;;3.95;;
27539;SDS011;15906;52.046;4.724;2022-12-28T11:21:27;6.50;;;4.45;;
27539;SDS011;15906;52.046;4.724;2022-12-28T11:23:53;7.78;;;4.35;;
27539;SDS011;15906;52.046;4.724;2022-12-28T11:26:18;8.13;;;3.55;;
27539;SDS011;15906;52.046;4.724;2022-12-28T11:28:45;5.65;;;3.60;;
27539;SDS011;15906;52.046;4.724;2022-12-28T11:31:20;7.70;;;3.90;;
27539;SDS011;15906;52.046;4.724;2022-12-28T11:33:51;6.57;;;3.42;;
27539;SDS011;15906;52.046;4.724;2022-12-28T11:36:21;5.05;;;3.58;;
27539;SDS011;15906;52.046;4.724;2022-12-28T11:38:51;7.90;;;3.95;;
27539;SDS011;15906;52.046;4.724;2022-12-28T11:43:48;5.50;;;3.45;;
27539;SDS011;15906;52.046;4.724;2022-12-28T11:49:12;10.80;;;3.63;;
27539;SDS011;15906;52.046;4.724;2022-12-28T11:52:00;7.47;;;4.00;;
27539;SDS011;15906;52.046;4.724;2022-12-28T11:55:31;8.07;;;3.35;;
27539;SDS011;15906;52.046;4.724;2022-12-28T11:57:49;6.03;;;3.60;;
27539;SDS011;15906;52.046;4.724;2022-12-28T12:02:50;8.32;;;3.67;;
27539;SDS011;15906;52.046;4.724;2022-12-28T12:08:01;6.78;;;3.15;;
27539;SDS011;15906;52.046;4.724;2022-12-28T12:10:37;5.50;;;3.63;;
27539;SDS011;15906;52.046;4.724;2022-12-28T12:15:49;6.78;;;3.85;;
27539;SDS011;15906;52.046;4.724;2022-12-28T12:18:21;12.20;;;4.13;;
27539;SDS011;15906;52.046;4.724;2022-12-28T12:20:50;7.80;;;4.32;;
27539;SDS011;15906;52.046;4.724;2022-12-28T12:23:41;8.60;;;4.07;;
27539;SDS011;15906;52.046;4.724;2022-12-28T12:29:05;10.50;;;4.90;;
27539;SDS011;15906;52.046;4.724;2022-12-28T12:31:42;8.88;;;3.85;;
27539;SDS011;15906;52.046;4.724;2022-12-28T12:34:14;7.43;;;3.85;;
27539;SDS011;15906;52.046;4.724;2022-12-28T12:44:35;9.52;;;3.90;;
27539;SDS011;15906;52.046;4.724;2022-12-28T12:47:20;12.70;;;3.67;;
27539;SDS011;15906;52.046;4.724;2022-12-28T12:52:58;12.05;;;4.05;;
27539;SDS011;15906;52.046;4.724;2022-12-28T12:58:52;10.88;;;3.85;;
27539;SDS011;15906;52.046;4.724;2022-12-28T13:01:47;13.13;;;3.88;;
27539;SDS011;15906;52.046;4.724;2022-12-28T13:04:32;12.38;;;4.35;;
27539;SDS011;15906;52.046;4.724;2022-12-28T13:07:00;12.30;;;4.45;;
27539;SDS011;15906;52.046;4.724;2022-12-28T13:09:29;12.75;;;4.45;;
27539;SDS011;15906;52.046;4.724;2022-12-28T13:11:58;8.95;;;4.40;;
27539;SDS011;15906;52.046;4.724;2022-12-28T13:14:25;15.30;;;4.97;;
27539;SDS011;15906;52.046;4.724;2022-12-28T13:16:51;12.85;;;4.70;;
27539;SDS011;15906;52.046;4.724;2022-12-28T13:19:22;15.38;;;5.00;;
27539;SDS011;15906;52.046;4.724;2022-12-28T13:21:52;10.85;;;5.22;;
27539;SDS011;15906;52.046;4.724;2022-12-28T13:26:51;7.22;;;4.13;;
27539;SDS011;15906;52.046;4.724;2022-12-28T13:29:19;11.93;;;4.25;;
27539;SDS011;15906;52.046;4.724;2022-12-28T13:31:46;14.75;;;4.70;;
27539;SDS011;15906;52.046;4.724;2022-12-28T13:34:17;11.18;;;4.18;;
27539;SDS011;15906;52.046;4.724;2022-12-28T13:36:47;8.48;;;4.00;;
27539;SDS011;15906;52.046;4.724;2022-12-28T13:39:14;8.50;;;3.08;;
27539;SDS011;15906;52.046;4.724;2022-12-28T13:44:25;9.27;;;3.50;;
27539;SDS011;15906;52.046;4.724;2022-12-28T13:46:59;9.38;;;3.50;;
27539;SDS011;15906;52.046;4.724;2022-12-28T13:49:37;9.20;;;3.78;;
27539;SDS011;15906;52.046;4.724;2022-12-28T13:52:10;9.10;;;4.35;;
27539;SDS011;15906;52.046;4.724;2022-12-28T13:54:42;7.93;;;3.30;;
27539;SDS011;15906;52.046;4.724;2022-12-28T13:57:11;12.23;;;3.47;;
27539;SDS011;15906;52.046;4.724;2022-12-28T13:59:40;8.65;;;3.42;;
27539;SDS011;15906;52.046;4.724;2022-12-28T14:02:06;8.40;;;3.42;;
27539;SDS011;15906;52.046;4.724;2022-12-28T14:04:39;13.38;;;4.10;;
27539;SDS011;15906;52.046;4.724;2022-12-28T14:07:09;12.02;;;3.65;;
27539;SDS011;15906;52.046;4.724;2022-12-28T14:09:36;7.43;;;3.25;;
27539;SDS011;15906;52.046;4.724;2022-12-28T14:12:02;7.45;;;2.97;;
27539;SDS011;15906;52.046;4.724;2022-12-28T14:14:28;11.85;;;3.05;;
27539;SDS011;15906;52.046;4.724;2022-12-28T14:16:54;5.40;;;2.65;;
27539;SDS011;15906;52.046;4.724;2022-12-28T14:19:20;7.55;;;3.25;;
27539;SDS011;15906;52.046;4.724;2022-12-28T14:21:46;12.77;;;3.08;;
27539;SDS011;15906;52.046;4.724;2022-12-28T14:24:13;6.20;;;4.28;;
27539;SDS011;15906;52.046;4.724;2022-12-28T14:26:43;11.48;;;3.58;;
27539;SDS011;15906;52.046;4.724;2022-12-28T14:29:16;9.70;;;3.40;;
27539;SDS011;15906;52.046;4.724;2022-12-28T14:32:04;13.88;;;2.95;;
27539;SDS011;15906;52.046;4.724;2022-12-28T14:34:37;8.15;;;3.55;;
27539;SDS011;15906;52.046;4.724;2022-12-28T14:37:02;8.23;;;3.08;;
27539;SDS011;15906;52.046;4.724;2022-12-28T14:39:30;7.68;;;2.83;;
27539;SDS011;15906;52.046;4.724;2022-12-28T14:42:02;9.95;;;3.10;;
27539;SDS011;15906;52.046;4.724;2022-12-28T14:44:31;7.22;;;2.85;;
27539;SDS011;15906;52.046;4.724;2022-12-28T14:47:00;8.70;;;3.35;;
27539;SDS011;15906;52.046;4.724;2022-12-28T14:54:32;9.60;;;2.92;;
27539;SDS011;15906;52.046;4.724;2022-12-28T14:57:18;9.30;;;3.65;;
27539;SDS011;15906;52.046;4.724;2022-12-28T14:59:45;14.18;;;5.03;;
27539;SDS011;15906;52.046;4.724;2022-12-28T15:04:59;9.00;;;3.00;;
27539;SDS011;15906;52.046;4.724;2022-12-28T15:07:26;5.82;;;2.50;;
27539;SDS011;15906;52.046;4.724;2022-12-28T15:09:51;8.50;;;2.92;;
27539;SDS011;15906;52.046;4.724;2022-12-28T15:12:18;6.65;;;2.92;;
27539;SDS011;15906;52.046;4.724;2022-12-28T15:14:45;8.00;;;3.55;;
27539;SDS011;15906;52.046;4.724;2022-12-28T15:17:12;6.57;;;2.90;;
27539;SDS011;15906;52.046;4.724;2022-12-28T15:19:38;7.97;;;2.85;;
27539;SDS011;15906;52.046;4.724;2022-12-28T15:22:06;10.07;;;2.80;;
27539;SDS011;15906;52.046;4.724;2022-12-28T15:24:32;10.52;;;3.75;;
27539;SDS011;15906;52.046;4.724;2022-12-28T15:26:58;11.98;;;3.65;;
27539;SDS011;15906;52.046;4.724;2022-12-28T15:29:23;6.78;;;2.95;;
27539;SDS011;15906;52.046;4.724;2022-12-28T15:31:49;8.35;;;2.90;;
27539;SDS011;15906;52.046;4.724;2022-12-28T15:34:14;7.80;;;3.08;;
27539;SDS011;15906;52.046;4.724;2022-12-28T15:36:40;10.00;;;3.38;;
27539;SDS011;15906;52.046;4.724;2022-12-28T15:39:10;9.20;;;3.28;;
27539;SDS011;15906;52.046;4.724;2022-12-28T15:41:36;8.98;;;3.05;;
27539;SDS011;15906;52.046;4.724;2022-12-28T15:44:15;11.35;;;3.38;;
27539;SDS011;15906;52.046;4.724;2022-12-28T15:46:42;10.00;;;3.13;;
27539;SDS011;15906;52.046;4.724;2022-12-28T15:49:09;5.60;;;3.13;;
27539;SDS011;15906;52.046;4.724;2022-12-28T15:51:36;7.53;;;3.10;;
27539;SDS011;15906;52.046;4.724;2022-12-28T15:54:02;9.27;;;3.65;;
27539;SDS011;15906;52.046;4.724;2022-12-28T15:56:29;10.93;;;3.60;;
27539;SDS011;15906;52.046;4.724;2022-12-28T15:58:58;6.45;;;3.05;;
27539;SDS011;15906;52.046;4.724;2022-12-28T16:01:25;6.10;;;2.78;;
27539;SDS011;15906;52.046;4.724;2022-12-28T16:03:53;7.40;;;3.10;;
27539;SDS011;15906;52.046;4.724;2022-12-28T16:06:20;10.10;;;3.40;;
27539;SDS011;15906;52.046;4.724;2022-12-28T16:08:46;4.57;;;2.60;;
27539;SDS011;15906;52.046;4.724;2022-12-28T16:11:13;13.13;;;3.03;;
27539;SDS011;15906;52.046;4.724;2022-12-28T16:13:40;8.88;;;2.85;;
27539;SDS011;15906;52.046;4.724;2022-12-28T16:16:06;6.88;;;2.75;;
27539;SDS011;15906;52.046;4.724;2022-12-28T16:18:34;7.65;;;2.58;;
27539;SDS011;15906;52.046;4.724;2022-12-28T16:21:00;9.57;;;3.47;;